Itapororoca, Brazil
Current Conditions -  °F | °C
As of 3:00 PM on Sunday 25 Jan 2015 (Local Time) from SBJP Reporting Station
Broken Clouds Broken Clouds  
Wind Chill: 86°   Ceiling: 3300
Heat Index: 88°   Visibility: 6mi
Dew Point: 66°   Wind: 13mph
Humidity: 51%   Direction: 90°E
Pressure: 29.88"   Gusts: NA
Location:  6.83°S, 35.24°W
Report Text: SBJP 251800Z 09011KT 060V130 9999 BKN033 30/19 Q1012
Loading
Personal Weather Stations






























Interactive Weather Map New forecast layout! Learn more

10-Day Weather Forecast

Advertisements
Track Severe Weather on mobile